Time;durP1;ratioP1;P1;durP2;ratioP2;P2;SDS_P1;SDS_P2;PMS_P1;PMS_P2;Temp;Humidity;BMP_temperature;BMP_pressure;BME280_temperature;BME280_humidity;BME280_pressure;Samples;Min_cycle;Max_cycle;Signal;HPM_P1;HPM_P2
2021/10/16 00:01:20;;;;;;;15.07;4.60;;;;;;;;;;5035876;28;20041;-53
2021/10/16 00:03:46;;;;;;;8.13;3.90;;;;;;;;;;5035497;28;20057;-53
2021/10/16 00:06:12;;;;;;;11.27;3.70;;;;;;;;;;5035541;28;20450;-53
2021/10/16 00:08:38;;;;;;;8.38;3.53;;;;;;;;;;5035994;28;20026;-53
2021/10/16 00:11:05;;;;;;;4.97;3.70;;;;;;;;;;5036185;28;20055;-53
2021/10/16 00:13:31;;;;;;;11.07;4.40;;;;;;;;;;5035519;28;20032;-54
2021/10/16 00:15:57;;;;;;;11.27;4.35;;;;;;;;;;5035513;28;20022;-53
2021/10/16 00:18:23;;;;;;;10.27;3.75;;;;;;;;;;5035410;28;20352;-53
2021/10/16 00:20:49;;;;;;;10.70;4.00;;;;;;;;;;5035537;28;20044;-53
2021/10/16 00:23:15;;;;;;;5.78;3.28;;;;;;;;;;5035679;28;20379;-53
2021/10/16 00:25:41;;;;;;;7.28;3.40;;;;;;;;;;5034621;28;20447;-53
2021/10/16 00:28:07;;;;;;;8.35;3.33;;;;;;;;;;5036123;28;20029;-53
2021/10/16 00:30:33;;;;;;;10.50;4.18;;;;;;;;;;5035370;28;20040;-53
2021/10/16 00:32:59;;;;;;;9.23;3.60;;;;;;;;;;5035369;28;20037;-53
2021/10/16 00:35:25;;;;;;;8.43;3.30;;;;;;;;;;5034454;28;20371;-53
2021/10/16 00:37:51;;;;;;;7.18;4.05;;;;;;;;;;5035469;28;20029;-53
2021/10/16 00:40:17;;;;;;;5.80;2.95;;;;;;;;;;5034314;28;20102;-53
2021/10/16 00:42:53;;;;;;;8.38;4.05;;;;;;;;;;5035254;28;20109;-53
2021/10/16 00:45:20;;;;;;;9.13;5.15;;;;;;;;;;5034545;28;20197;-53
2021/10/16 00:47:46;;;;;;;7.53;3.38;;;;;;;;;;5035177;28;20030;-53
2021/10/16 00:50:12;;;;;;;8.05;3.38;;;;;;;;;;5035194;28;20053;-53
2021/10/16 00:52:39;;;;;;;9.23;4.15;;;;;;;;;;5034553;28;20026;-53
2021/10/16 00:55:09;;;;;;;8.10;3.60;;;;;;;;;;5034414;28;20032;-53
2021/10/16 00:57:35;;;;;;;6.30;3.85;;;;;;;;;;5035255;28;20116;-53
2021/10/16 01:00:02;;;;;;;8.32;3.60;;;;;;;;;;5034910;28;20089;-53
2021/10/16 01:02:28;;;;;;;7.13;4.03;;;;;;;;;;5034869;28;20336;-53
2021/10/16 01:04:53;;;;;;;9.60;4.30;;;;;;;;;;5033656;28;20021;-53
2021/10/16 01:07:20;;;;;;;11.40;4.25;;;;;;;;;;5034747;28;20045;-53
2021/10/16 01:09:47;;;;;;;12.90;4.30;;;;;;;;;;5034963;28;20021;-53
2021/10/16 01:12:13;;;;;;;8.02;4.40;;;;;;;;;;5034731;28;20466;-53
2021/10/16 01:14:40;;;;;;;12.25;4.57;;;;;;;;;;5033833;28;20034;-53
2021/10/16 01:17:07;;;;;;;11.10;4.50;;;;;;;;;;5035078;28;20032;-53
2021/10/16 01:19:35;;;;;;;10.98;3.60;;;;;;;;;;5034198;28;20040;-53
2021/10/16 01:22:01;;;;;;;5.47;2.90;;;;;;;;;;5034306;28;20022;-53
2021/10/16 01:24:29;;;;;;;6.30;3.40;;;;;;;;;;5033457;28;20041;-53
2021/10/16 01:26:55;;;;;;;5.53;3.15;;;;;;;;;;5034820;28;20028;-53
2021/10/16 01:29:23;;;;;;;7.13;3.75;;;;;;;;;;5034214;28;20159;-53
2021/10/16 01:31:49;;;;;;;8.68;3.53;;;;;;;;;;5034574;28;20090;-53
2021/10/16 01:34:15;;;;;;;7.22;3.72;;;;;;;;;;5033561;28;20024;-53
2021/10/16 01:36:49;;;;;;;8.07;4.13;;;;;;;;;;5034503;28;20112;-53
2021/10/16 01:39:15;;;;;;;7.05;3.67;;;;;;;;;;5033959;28;20037;-53
2021/10/16 01:41:41;;;;;;;7.22;4.20;;;;;;;;;;5033888;28;20359;-53
2021/10/16 01:44:08;;;;;;;9.25;5.32;;;;;;;;;;5033330;28;20061;-53
2021/10/16 01:46:34;;;;;;;10.73;5.13;;;;;;;;;;5033917;28;20028;-53
2021/10/16 01:49:07;;;;;;;8.18;4.05;;;;;;;;;;5033910;28;20033;-53
2021/10/16 01:51:33;;;;;;;9.07;4.18;;;;;;;;;;5033845;28;20013;-53
2021/10/16 01:53:59;;;;;;;7.88;4.47;;;;;;;;;;5033256;28;20415;-53
2021/10/16 01:56:25;;;;;;;10.70;4.28;;;;;;;;;;5033892;28;20014;-53
2021/10/16 01:58:51;;;;;;;10.20;4.55;;;;;;;;;;5033682;28;20037;-53
2021/10/16 02:01:17;;;;;;;11.13;4.75;;;;;;;;;;5033277;28;20025;-53
2021/10/16 02:03:43;;;;;;;11.40;4.93;;;;;;;;;;5039715;28;20032;-53
2021/10/16 02:06:09;;;;;;;11.48;4.68;;;;;;;;;;5053831;28;20438;-53
2021/10/16 02:08:36;;;;;;;9.30;4.15;;;;;;;;;;5052965;28;20029;-53
2021/10/16 02:11:02;;;;;;;8.27;3.78;;;;;;;;;;5053652;28;20028;-53
2021/10/16 02:13:28;;;;;;;7.63;3.97;;;;;;;;;;5052973;28;20082;-53
2021/10/16 02:15:54;;;;;;;6.93;3.45;;;;;;;;;;5053421;28;20025;-53
2021/10/16 02:18:20;;;;;;;6.78;3.75;;;;;;;;;;5053442;28;20344;-53
2021/10/16 02:20:46;;;;;;;8.32;4.13;;;;;;;;;;5052922;28;20028;-53
2021/10/16 02:23:12;;;;;;;6.93;3.65;;;;;;;;;;5052896;28;20119;-53
2021/10/16 02:25:38;;;;;;;10.88;3.63;;;;;;;;;;5052734;28;20028;-53
2021/10/16 02:28:04;;;;;;;7.03;4.13;;;;;;;;;;5053252;28;20358;-53
2021/10/16 02:30:30;;;;;;;6.22;3.25;;;;;;;;;;5053138;28;20542;-53
2021/10/16 02:32:56;;;;;;;7.05;3.35;;;;;;;;;;5052827;28;20112;-53
2021/10/16 02:35:22;;;;;;;6.30;3.67;;;;;;;;;;5052096;28;20021;-53
2021/10/16 02:37:48;;;;;;;7.32;4.38;;;;;;;;;;5052980;28;20036;-53
2021/10/16 02:40:14;;;;;;;4.75;2.70;;;;;;;;;;5053180;28;20031;-53
2021/10/16 02:42:41;;;;;;;8.90;3.50;;;;;;;;;;5053153;28;20017;-53
2021/10/16 02:45:07;;;;;;;8.68;3.38;;;;;;;;;;5052192;28;20029;-53
2021/10/16 02:47:33;;;;;;;7.88;3.88;;;;;;;;;;5052991;28;20458;-53
2021/10/16 02:49:59;;;;;;;8.85;3.47;;;;;;;;;;5052998;28;20079;-53
2021/10/16 02:52:26;;;;;;;5.93;3.42;;;;;;;;;;5052794;28;20056;-53
2021/10/16 02:54:52;;;;;;;6.72;3.22;;;;;;;;;;5052062;28;20423;-53
2021/10/16 02:57:18;;;;;;;7.85;3.63;;;;;;;;;;5052643;28;20021;-53
2021/10/16 02:59:44;;;;;;;6.70;3.47;;;;;;;;;;5045658;28;20043;-53
2021/10/16 03:02:10;;;;;;;9.07;4.70;;;;;;;;;;5052780;28;20021;-53
2021/10/16 03:04:36;;;;;;;11.70;4.38;;;;;;;;;;5051567;28;20066;-53
2021/10/16 03:07:02;;;;;;;9.52;4.38;;;;;;;;;;5052684;28;20439;-53
2021/10/16 03:09:28;;;;;;;10.73;4.80;;;;;;;;;;5052313;28;20025;-53
2021/10/16 03:11:55;;;;;;;8.15;3.92;;;;;;;;;;5052595;28;20027;-53
2021/10/16 03:14:20;;;;;;;6.80;3.58;;;;;;;;;;5051911;28;20030;-53
2021/10/16 03:16:49;;;;;;;11.45;3.35;;;;;;;;;;5052871;28;20025;-53
2021/10/16 03:19:15;;;;;;;5.82;3.80;;;;;;;;;;5052928;28;20037;-53
2021/10/16 03:21:41;;;;;;;12.20;5.53;;;;;;;;;;5036870;28;20028;-53
2021/10/16 03:24:07;;;;;;;8.55;3.85;;;;;;;;;;5031944;28;20105;-53
2021/10/16 03:26:33;;;;;;;8.43;4.10;;;;;;;;;;5032733;28;20488;-53
2021/10/16 03:28:59;;;;;;;12.40;5.05;;;;;;;;;;5032334;28;20057;-53
2021/10/16 03:31:25;;;;;;;18.25;5.22;;;;;;;;;;5032481;28;20033;-53
2021/10/16 03:33:51;;;;;;;9.18;4.13;;;;;;;;;;5031819;28;20461;-53
2021/10/16 03:36:17;;;;;;;9.15;4.38;;;;;;;;;;5032656;28;20030;-53
2021/10/16 03:38:43;;;;;;;9.35;4.18;;;;;;;;;;5032781;28;20116;-53
2021/10/16 03:41:09;;;;;;;9.15;4.55;;;;;;;;;;5032425;28;20056;-53
2021/10/16 03:43:35;;;;;;;8.85;4.10;;;;;;;;;;5031731;28;20447;-53
2021/10/16 03:46:01;;;;;;;6.90;4.05;;;;;;;;;;5032646;28;20018;-53
2021/10/16 03:48:27;;;;;;;8.93;3.70;;;;;;;;;;5032555;28;20086;-53
2021/10/16 03:50:54;;;;;;;6.35;4.03;;;;;;;;;;5032241;28;20079;-53
2021/10/16 03:53:20;;;;;;;7.28;3.67;;;;;;;;;;5032774;28;20068;-53
2021/10/16 03:55:46;;;;;;;6.75;3.63;;;;;;;;;;5031207;28;20463;-53
2021/10/16 03:58:12;;;;;;;10.70;4.90;;;;;;;;;;5032214;28;20626;-54
2021/10/16 04:00:38;;;;;;;10.32;3.72;;;;;;;;;;5032199;28;20021;-53
2021/10/16 04:03:05;;;;;;;8.15;4.32;;;;;;;;;;5032697;28;20028;-53
2021/10/16 04:05:33;;;;;;;8.02;4.45;;;;;;;;;;5031306;28;20087;-53
2021/10/16 04:07:59;;;;;;;6.70;3.05;;;;;;;;;;5032400;28;20431;-53
2021/10/16 04:10:25;;;;;;;7.60;3.45;;;;;;;;;;5031798;28;20367;-53
2021/10/16 04:12:51;;;;;;;7.38;4.10;;;;;;;;;;5032089;28;20352;-53
2021/10/16 04:15:16;;;;;;;7.60;3.80;;;;;;;;;;5033161;28;20026;-53
2021/10/16 04:17:45;;;;;;;10.40;4.68;;;;;;;;;;5035916;28;20103;-53
2021/10/16 04:20:12;;;;;;;9.32;4.28;;;;;;;;;;5035825;28;20060;-53
2021/10/16 04:22:38;;;;;;;8.00;4.45;;;;;;;;;;5035242;28;20468;-53
2021/10/16 04:25:04;;;;;;;7.00;3.40;;;;;;;;;;5035000;28;20056;-53
2021/10/16 04:27:30;;;;;;;5.30;3.40;;;;;;;;;;5035694;28;20032;-53
2021/10/16 04:29:56;;;;;;;6.35;3.47;;;;;;;;;;5035549;28;20366;-53
2021/10/16 04:32:22;;;;;;;6.20;3.40;;;;;;;;;;5035384;28;20474;-53
2021/10/16 04:34:48;;;;;;;10.60;4.80;;;;;;;;;;5034689;28;20053;-54
2021/10/16 04:37:17;;;;;;;11.30;5.82;;;;;;;;;;5035199;28;20029;-53
2021/10/16 04:39:43;;;;;;;10.20;4.32;;;;;;;;;;5035387;28;20042;-53
2021/10/16 04:42:12;;;;;;;8.80;4.35;;;;;;;;;;5035187;28;20026;-53
2021/10/16 04:44:39;;;;;;;8.35;4.50;;;;;;;;;;5034755;28;20422;-54
2021/10/16 04:47:06;;;;;;;8.93;4.28;;;;;;;;;;5034815;28;20105;-53
2021/10/16 04:49:34;;;;;;;7.25;4.22;;;;;;;;;;5035666;28;20029;-53
2021/10/16 04:52:00;;;;;;;13.20;5.63;;;;;;;;;;5034753;28;20036;-53
2021/10/16 04:54:26;;;;;;;11.55;5.70;;;;;;;;;;5034217;28;20116;-53
2021/10/16 04:56:52;;;;;;;17.30;5.20;;;;;;;;;;5034860;28;20109;-53
2021/10/16 04:59:18;;;;;;;8.80;4.40;;;;;;;;;;5035274;28;20040;-53
2021/10/16 05:01:44;;;;;;;9.20;4.70;;;;;;;;;;5034774;28;20022;-53
2021/10/16 05:04:10;;;;;;;9.00;4.78;;;;;;;;;;5034190;28;20148;-53
2021/10/16 05:06:36;;;;;;;10.52;5.07;;;;;;;;;;5034579;28;20028;-53
2021/10/16 05:09:02;;;;;;;9.55;4.50;;;;;;;;;;5034660;28;20124;-53
2021/10/16 05:11:28;;;;;;;7.75;3.88;;;;;;;;;;5034748;28;20022;-53
2021/10/16 05:13:54;;;;;;;8.77;3.92;;;;;;;;;;5034237;28;20025;-53
2021/10/16 05:16:19;;;;;;;7.78;4.40;;;;;;;;;;5034891;28;20479;-54
2021/10/16 05:18:46;;;;;;;7.32;3.40;;;;;;;;;;5034291;28;20032;-54
2021/10/16 05:21:13;;;;;;;10.77;3.95;;;;;;;;;;5034566;28;20030;-53
2021/10/16 05:23:39;;;;;;;10.05;4.90;;;;;;;;;;5033663;28;20021;-53
2021/10/16 05:26:05;;;;;;;14.13;4.18;;;;;;;;;;5034147;28;20021;-53
2021/10/16 05:28:31;;;;;;;11.15;5.28;;;;;;;;;;5034447;28;20033;-53
2021/10/16 05:30:57;;;;;;;15.57;5.85;;;;;;;;;;5034380;28;20033;-53
2021/10/16 05:33:23;;;;;;;8.52;5.00;;;;;;;;;;5034186;28;20366;-53
2021/10/16 05:35:49;;;;;;;9.23;4.30;;;;;;;;;;5033181;28;20029;-53
2021/10/16 05:38:15;;;;;;;10.52;4.88;;;;;;;;;;5034407;28;20064;-53
2021/10/16 05:40:41;;;;;;;9.05;4.88;;;;;;;;;;5034401;28;20439;-53
2021/10/16 05:43:08;;;;;;;13.00;4.78;;;;;;;;;;5033951;28;20136;-53
2021/10/16 05:45:34;;;;;;;8.50;4.25;;;;;;;;;;5033444;28;20494;-53
2021/10/16 05:48:00;;;;;;;11.32;5.70;;;;;;;;;;5034013;28;20477;-54
2021/10/16 05:50:26;;;;;;;9.23;5.05;;;;;;;;;;5033629;28;20025;-53
2021/10/16 05:52:52;;;;;;;14.23;6.25;;;;;;;;;;5033873;28;20627;-53
2021/10/16 05:55:18;;;;;;;9.93;4.75;;;;;;;;;;5032933;28;20033;-53
2021/10/16 05:57:44;;;;;;;17.45;5.18;;;;;;;;;;5033622;28;20018;-53
2021/10/16 06:00:10;;;;;;;7.70;4.10;;;;;;;;;;5034089;28;20501;-53
2021/10/16 06:02:38;;;;;;;7.00;4.45;;;;;;;;;;5033588;28;20057;-53
2021/10/16 06:05:04;;;;;;;11.45;4.95;;;;;;;;;;5032903;28;20080;-53
2021/10/16 06:07:30;;;;;;;15.73;7.22;;;;;;;;;;5033497;28;20021;-54
2021/10/16 06:09:56;;;;;;;13.00;5.90;;;;;;;;;;5033700;28;20441;-53
2021/10/16 06:12:22;;;;;;;8.63;4.40;;;;;;;;;;5033703;28;20044;-53
2021/10/16 06:14:48;;;;;;;9.07;4.32;;;;;;;;;;5032807;28;20025;-55
2021/10/16 06:17:14;;;;;;;20.27;4.25;;;;;;;;;;5033940;28;20032;-53
2021/10/16 06:19:41;;;;;;;13.10;5.63;;;;;;;;;;5033122;28;20382;-53
2021/10/16 06:22:07;;;;;;;11.25;5.22;;;;;;;;;;5033114;28;20021;-53
2021/10/16 06:24:33;;;;;;;8.32;4.28;;;;;;;;;;5033054;28;20028;-53
2021/10/16 06:26:59;;;;;;;10.73;4.72;;;;;;;;;;5033399;28;20025;-53
2021/10/16 06:29:25;;;;;;;10.48;5.50;;;;;;;;;;5033165;28;20113;-53
2021/10/16 06:31:51;;;;;;;7.22;4.13;;;;;;;;;;5033637;28;20022;-53
2021/10/16 06:34:17;;;;;;;14.57;5.55;;;;;;;;;;5032052;28;20509;-53
2021/10/16 06:36:43;;;;;;;8.02;4.90;;;;;;;;;;5032982;28;20032;-54
2021/10/16 06:39:09;;;;;;;10.27;4.90;;;;;;;;;;5032382;28;20079;-53
2021/10/16 06:41:35;;;;;;;11.35;4.43;;;;;;;;;;5033606;28;20435;-53
2021/10/16 06:44:01;;;;;;;11.93;5.78;;;;;;;;;;5032098;28;20025;-53
2021/10/16 06:46:27;;;;;;;11.82;5.70;;;;;;;;;;5033151;28;20398;-54
2021/10/16 06:48:53;;;;;;;11.27;5.07;;;;;;;;;;5032961;28;20104;-53
2021/10/16 06:51:19;;;;;;;11.85;4.97;;;;;;;;;;5033015;28;20113;-53
2021/10/16 06:53:45;;;;;;;10.02;5.10;;;;;;;;;;5031519;28;20056;-54
2021/10/16 06:56:11;;;;;;;10.68;4.97;;;;;;;;;;5033111;28;20332;-53
2021/10/16 06:58:37;;;;;;;12.23;5.05;;;;;;;;;;5032969;28;20030;-53
2021/10/16 07:01:03;;;;;;;10.65;4.88;;;;;;;;;;5033199;28;20437;-54
2021/10/16 07:03:29;;;;;;;11.35;5.43;;;;;;;;;;5031551;28;20033;-53
2021/10/16 07:05:55;;;;;;;12.63;5.68;;;;;;;;;;5033077;28;20142;-53
2021/10/16 07:08:25;;;;;;;15.40;5.88;;;;;;;;;;5032923;28;20100;-53
2021/10/16 07:10:51;;;;;;;12.32;5.50;;;;;;;;;;5032754;28;20040;-53
2021/10/16 07:13:17;;;;;;;15.18;5.10;;;;;;;;;;5032725;28;20035;-53
2021/10/16 07:15:43;;;;;;;11.52;5.75;;;;;;;;;;5032176;28;20025;-53
2021/10/16 07:18:09;;;;;;;11.55;5.15;;;;;;;;;;5032818;28;20455;-54
2021/10/16 07:20:35;;;;;;;10.45;5.70;;;;;;;;;;5032482;28;20051;-53
2021/10/16 07:23:01;;;;;;;16.17;6.13;;;;;;;;;;5032837;28;20038;-54
2021/10/16 07:25:27;;;;;;;15.15;6.20;;;;;;;;;;5031771;28;20396;-53
2021/10/16 07:27:54;;;;;;;11.82;6.00;;;;;;;;;;5032922;28;20021;-54
2021/10/16 07:30:20;;;;;;;12.52;5.43;;;;;;;;;;5032352;28;20041;-53
2021/10/16 07:32:47;;;;;;;10.32;5.70;;;;;;;;;;5032667;28;20033;-53
2021/10/16 07:35:14;;;;;;;12.45;5.68;;;;;;;;;;5032014;28;20033;-54
2021/10/16 07:37:40;;;;;;;21.08;7.47;;;;;;;;;;5032411;28;20079;-53
2021/10/16 07:40:06;;;;;;;14.27;6.75;;;;;;;;;;5032490;28;20084;-53
2021/10/16 07:42:32;;;;;;;17.40;6.00;;;;;;;;;;5032812;28;20100;-54
2021/10/16 07:44:58;;;;;;;15.75;6.13;;;;;;;;;;5031620;28;20132;-53
2021/10/16 07:47:26;;;;;;;11.93;6.22;;;;;;;;;;5032465;28;20089;-53
2021/10/16 07:49:56;;;;;;;10.27;5.32;;;;;;;;;;5033969;28;20261;-53
2021/10/16 07:52:22;;;;;;;15.35;6.40;;;;;;;;;;5036275;28;20026;-53
2021/10/16 07:54:48;;;;;;;12.25;5.25;;;;;;;;;;5035792;28;20033;-53
2021/10/16 07:57:17;;;;;;;13.68;6.55;;;;;;;;;;5036397;28;20057;-53
2021/10/16 07:59:43;;;;;;;20.00;6.82;;;;;;;;;;5036017;28;20116;-53
2021/10/16 08:02:09;;;;;;;17.00;7.00;;;;;;;;;;5035850;28;20113;-53
2021/10/16 08:04:35;;;;;;;18.83;8.70;;;;;;;;;;5035330;28;20029;-53
2021/10/16 08:07:01;;;;;;;21.70;8.63;;;;;;;;;;5035824;28;20515;-53
2021/10/16 08:09:27;;;;;;;22.27;9.38;;;;;;;;;;5035946;28;20078;-53
2021/10/16 08:11:53;;;;;;;23.02;8.60;;;;;;;;;;5036015;28;20033;-53
2021/10/16 08:14:19;;;;;;;19.88;9.38;;;;;;;;;;5035201;28;20029;-53
2021/10/16 08:16:45;;;;;;;22.95;9.00;;;;;;;;;;5035573;28;20021;-53
2021/10/16 08:19:11;;;;;;;22.00;9.98;;;;;;;;;;5035888;28;20505;-53
2021/10/16 08:21:37;;;;;;;22.58;8.68;;;;;;;;;;5035504;28;20049;-54
2021/10/16 08:24:03;;;;;;;15.50;8.07;;;;;;;;;;5034927;28;20021;-53
2021/10/16 08:26:29;;;;;;;29.02;10.30;;;;;;;;;;5036104;28;20347;-53
2021/10/16 08:28:55;;;;;;;25.13;10.52;;;;;;;;;;5034924;28;20054;-53
2021/10/16 08:31:21;;;;;;;27.35;8.73;;;;;;;;;;5035404;28;20071;-53
2021/10/16 08:33:47;;;;;;;27.77;9.73;;;;;;;;;;5034412;28;20040;-53
2021/10/16 08:36:13;;;;;;;20.98;9.13;;;;;;;;;;5035889;28;20021;-53
2021/10/16 08:38:40;;;;;;;25.42;9.40;;;;;;;;;;5035297;28;20436;-54
2021/10/16 08:41:09;;;;;;;21.20;9.00;;;;;;;;;;5035506;28;20432;-53
2021/10/16 08:43:35;;;;;;;24.67;11.15;;;;;;;;;;5034068;28;20103;-53
2021/10/16 08:46:02;;;;;;;23.50;10.18;;;;;;;;;;5035505;28;20470;-53
2021/10/16 08:48:29;;;;;;;21.23;10.05;;;;;;;;;;5035288;28;20030;-53
2021/10/16 08:50:55;;;;;;;31.38;11.52;;;;;;;;;;5035240;28;20032;-53
2021/10/16 08:53:22;;;;;;;25.33;11.10;;;;;;;;;;5034346;28;20120;-53
2021/10/16 08:55:51;;;;;;;33.17;11.30;;;;;;;;;;5053030;28;20032;-53
2021/10/16 08:58:17;;;;;;;31.50;13.07;;;;;;;;;;5054592;28;20028;-53
2021/10/16 09:00:51;;;;;;;37.38;12.93;;;;;;;;;;5052108;28;20025;-53
2021/10/16 09:03:17;;;;;;;30.67;11.75;;;;;;;;;;5034859;28;20139;-53
2021/10/16 09:06:27;;;;;;;28.85;11.38;;;;;;;;;;5033793;28;20021;-53
2021/10/16 09:08:59;;;;;;;29.50;11.38;;;;;;;;;;5012101;28;20385;-53
2021/10/16 09:11:28;;;;;;;37.70;13.38;;;;;;;;;;5012691;28;20376;-54
2021/10/16 09:13:58;;;;;;;32.25;12.45;;;;;;;;;;5011608;28;20925;-53
2021/10/16 09:16:27;;;;;;;32.88;12.13;;;;;;;;;;5012608;28;20388;-54
2021/10/16 09:18:54;;;;;;;35.13;11.77;;;;;;;;;;5012172;28;20491;-53
2021/10/16 09:21:24;;;;;;;36.53;13.15;;;;;;;;;;5024701;28;20409;-54
2021/10/16 09:24:05;;;;;;;26.95;10.93;;;;;;;;;;5031420;28;20040;-53
2021/10/16 09:26:32;;;;;;;35.10;13.38;;;;;;;;;;5031961;28;20061;-53
2021/10/16 09:29:01;;;;;;;31.38;13.18;;;;;;;;;;5032200;28;20053;-53
2021/10/16 09:31:32;;;;;;;33.17;11.70;;;;;;;;;;5031492;28;20521;-53
2021/10/16 09:33:58;;;;;;;31.38;13.20;;;;;;;;;;5031107;28;20140;-53
2021/10/16 09:36:25;;;;;;;26.55;10.85;;;;;;;;;;5031645;28;20459;-53
2021/10/16 09:38:51;;;;;;;30.23;11.77;;;;;;;;;;5031537;28;20041;-53
2021/10/16 09:41:30;;;;;;;34.55;11.48;;;;;;;;;;5031656;28;20029;-53
2021/10/16 09:43:57;;;;;;;38.65;13.27;;;;;;;;;;5033425;28;20029;-53
2021/10/16 09:46:24;;;;;;;32.58;12.43;;;;;;;;;;5033898;28;20025;-53
2021/10/16 09:48:50;;;;;;;40.75;14.50;;;;;;;;;;5034314;28;20022;-53
2021/10/16 09:51:21;;;;;;;34.80;13.73;;;;;;;;;;5033853;28;20117;-53
2021/10/16 09:53:48;;;;;;;29.48;11.70;;;;;;;;;;5033329;28;20025;-53
2021/10/16 09:56:15;;;;;;;37.97;13.90;;;;;;;;;;5033743;28;20025;-53
2021/10/16 09:58:41;;;;;;;38.75;13.52;;;;;;;;;;5033590;28;20037;-53
2021/10/16 10:01:09;;;;;;;34.70;14.15;;;;;;;;;;5033792;28;20214;-53
2021/10/16 10:03:37;;;;;;;35.88;11.82;;;;;;;;;;5033231;28;20079;-54
2021/10/16 10:06:03;;;;;;;36.10;13.57;;;;;;;;;;5034084;28;20022;-53
2021/10/16 10:08:29;;;;;;;42.92;13.10;;;;;;;;;;5033797;28;20029;-53
2021/10/16 10:10:55;;;;;;;27.63;12.20;;;;;;;;;;5033451;28;20028;-53
2021/10/16 10:13:26;;;;;;;34.45;11.63;;;;;;;;;;5033196;28;20025;-53
2021/10/16 10:15:52;;;;;;;31.08;12.30;;;;;;;;;;5033506;28;20033;-53
2021/10/16 10:21:03;;;;;;;34.13;11.68;;;;;;;;;;5033310;28;20105;-53
2021/10/16 10:23:29;;;;;;;30.50;11.48;;;;;;;;;;5032932;28;20100;-53
2021/10/16 10:26:13;;;;;;;31.73;12.38;;;;;;;;;;5033446;28;20025;-53
2021/10/16 10:28:52;;;;;;;37.33;11.73;;;;;;;;;;5033535;28;20049;-53
2021/10/16 10:31:38;;;;;;;32.75;12.65;;;;;;;;;;5033612;28;20029;-53
2021/10/16 10:34:04;;;;;;;35.92;12.65;;;;;;;;;;5031855;28;20100;-53
2021/10/16 10:36:29;;;;;;;31.05;11.93;;;;;;;;;;5033620;28;20026;-53
2021/10/16 10:38:55;;;;;;;29.88;11.43;;;;;;;;;;5032875;28;20040;-53
2021/10/16 10:41:24;;;;;;;28.30;10.70;;;;;;;;;;5033264;28;20121;-53
2021/10/16 10:43:54;;;;;;;34.63;11.85;;;;;;;;;;5032522;28;20029;-53
2021/10/16 10:46:25;;;;;;;31.48;12.48;;;;;;;;;;5033414;28;20028;-54
2021/10/16 10:48:52;;;;;;;22.10;9.57;;;;;;;;;;5032830;28;20351;-54
2021/10/16 10:51:37;;;;;;;27.90;11.48;;;;;;;;;;5033133;28;20030;-53
2021/10/16 10:54:21;;;;;;;28.98;10.38;;;;;;;;;;5032363;28;20029;-54
2021/10/16 10:56:56;;;;;;;31.90;12.00;;;;;;;;;;5033095;28;20068;-53
2021/10/16 10:59:22;;;;;;;31.25;11.73;;;;;;;;;;5032700;28;20062;-53
2021/10/16 11:01:51;;;;;;;22.33;10.18;;;;;;;;;;5033079;28;20025;-53
2021/10/16 11:04:36;;;;;;;27.42;10.63;;;;;;;;;;5031976;28;20479;-53
2021/10/16 11:07:04;;;;;;;25.10;9.70;;;;;;;;;;5033143;28;20091;-53
2021/10/16 11:09:30;;;;;;;33.78;11.93;;;;;;;;;;5032269;28;20029;-53
2021/10/16 11:11:56;;;;;;;32.08;11.60;;;;;;;;;;5032959;28;20255;-54
2021/10/16 11:14:29;;;;;;;31.13;13.45;;;;;;;;;;5032172;28;20025;-53
2021/10/16 11:16:56;;;;;;;32.30;10.80;;;;;;;;;;5033046;28;20045;-53
2021/10/16 11:19:22;;;;;;;33.42;12.68;;;;;;;;;;5033041;28;20052;-53
2021/10/16 11:21:52;;;;;;;24.63;10.05;;;;;;;;;;5031023;28;20458;-53
2021/10/16 11:24:19;;;;;;;32.20;11.45;;;;;;;;;;5031977;28;20116;-54
2021/10/16 11:26:59;;;;;;;28.98;11.13;;;;;;;;;;5036721;28;20033;-53
2021/10/16 11:29:35;;;;;;;29.25;10.82;;;;;;;;;;5036760;28;20033;-54
2021/10/16 11:32:13;;;;;;;34.10;13.07;;;;;;;;;;5036418;28;20490;-53
2021/10/16 11:34:39;;;;;;;36.72;13.25;;;;;;;;;;5036024;28;20459;-53
2021/10/16 11:37:06;;;;;;;26.95;10.15;;;;;;;;;;5036149;28;20021;-53
2021/10/16 11:39:33;;;;;;;32.78;11.60;;;;;;;;;;5036740;28;20463;-53
2021/10/16 11:41:59;;;;;;;26.80;11.35;;;;;;;;;;5036789;28;20079;-53
2021/10/16 11:44:26;;;;;;;26.33;9.98;;;;;;;;;;5035715;28;20054;-54
2021/10/16 11:46:59;;;;;;;25.30;10.02;;;;;;;;;;5035849;28;20029;-53
2021/10/16 11:49:27;;;;;;;24.98;9.57;;;;;;;;;;5036310;28;20076;-53
2021/10/16 11:51:53;;;;;;;18.92;8.40;;;;;;;;;;5036037;28;20026;-53
2021/10/16 11:54:19;;;;;;;24.92;9.85;;;;;;;;;;5035779;28;20017;-53
2021/10/16 11:56:55;;;;;;;19.98;8.98;;;;;;;;;;5036152;28;20039;-53
2021/10/16 11:59:21;;;;;;;22.60;9.35;;;;;;;;;;5036178;28;20092;-53
2021/10/16 12:01:47;;;;;;;14.15;7.00;;;;;;;;;;5035704;28;20483;-53
2021/10/16 12:04:13;;;;;;;18.58;8.27;;;;;;;;;;5035430;28;20076;-53
2021/10/16 12:06:41;;;;;;;22.52;8.60;;;;;;;;;;5036134;28;20053;-53
2021/10/16 12:09:12;;;;;;;16.33;8.20;;;;;;;;;;5036091;28;20095;-53
2021/10/16 12:11:38;;;;;;;18.30;7.53;;;;;;;;;;5035840;28;20032;-53
2021/10/16 12:14:06;;;;;;;20.02;8.20;;;;;;;;;;5034923;28;20037;-53
2021/10/16 12:16:36;;;;;;;18.60;7.80;;;;;;;;;;5035941;28;20017;-53
2021/10/16 12:19:02;;;;;;;;;;;;;;;;;;5036404;28;20037;-53
2021/10/16 12:21:30;;;;;;;9.32;4.00;;;;;;;;;;5035779;28;19963;-53
2021/10/16 12:23:57;;;;;;;8.63;4.95;;;;;;;;;;5034890;28;20604;-53
2021/10/16 12:26:25;;;;;;;15.02;6.57;;;;;;;;;;5035031;28;20061;-53
2021/10/16 12:28:52;;;;;;;18.88;7.38;;;;;;;;;;5035916;28;20029;-53
2021/10/16 12:31:18;;;;;;;16.05;6.50;;;;;;;;;;5035407;28;20033;-53
2021/10/16 12:34:20;;;;;;;18.50;6.82;;;;;;;;;;5034991;28;20068;-53
2021/10/16 12:36:51;;;;;;;14.65;5.63;;;;;;;;;;5017757;28;20116;-53
2021/10/16 12:39:23;;;;;;;15.02;6.43;;;;;;;;;;5032919;28;20423;-53
2021/10/16 12:41:49;;;;;;;12.98;6.20;;;;;;;;;;5032734;28;20025;-53
2021/10/16 12:44:25;;;;;;;12.65;5.47;;;;;;;;;;5032192;28;20052;-53
2021/10/16 12:47:06;;;;;;;15.95;6.22;;;;;;;;;;5032829;28;20030;-53
2021/10/16 12:49:32;;;;;;;14.63;6.43;;;;;;;;;;5032498;28;20035;-53
2021/10/16 12:51:59;;;;;;;10.85;6.28;;;;;;;;;;5032612;28;20037;-53
2021/10/16 12:54:37;;;;;;;18.88;7.30;;;;;;;;;;5032142;28;20364;-53
2021/10/16 12:57:04;;;;;;;14.32;6.90;;;;;;;;;;5032670;28;20379;-53
2021/10/16 12:59:30;;;;;;;11.02;6.57;;;;;;;;;;5032377;28;20037;-53
2021/10/16 13:01:56;;;;;;;17.17;7.57;;;;;;;;;;5032136;28;20489;-53
2021/10/16 13:04:22;;;;;;;13.73;6.55;;;;;;;;;;5031910;28;20064;-53
2021/10/16 13:06:48;;;;;;;12.75;6.10;;;;;;;;;;5032379;28;20064;-52
2021/10/16 13:09:14;;;;;;;15.00;6.32;;;;;;;;;;5032634;28;20356;-53
2021/10/16 13:11:40;;;;;;;16.67;6.80;;;;;;;;;;5052046;28;20059;-53
2021/10/16 13:14:06;;;;;;;15.57;7.20;;;;;;;;;;5053832;28;20025;-53
2021/10/16 13:16:32;;;;;;;16.38;7.38;;;;;;;;;;5054300;28;20024;-53
2021/10/16 13:18:58;;;;;;;17.75;7.22;;;;;;;;;;5054496;28;20029;-53
2021/10/16 13:21:24;;;;;;;8.63;4.70;;;;;;;;;;5054798;28;20031;-53
2021/10/16 13:23:50;;;;;;;17.67;6.95;;;;;;;;;;5053711;28;20530;-53
2021/10/16 13:26:16;;;;;;;12.75;6.43;;;;;;;;;;5054230;28;20025;-53
2021/10/16 13:28:42;;;;;;;11.65;6.00;;;;;;;;;;5054747;28;20071;-53
2021/10/16 13:31:08;;;;;;;12.32;6.25;;;;;;;;;;5054159;28;20053;-53
2021/10/16 13:33:34;;;;;;;12.73;5.60;;;;;;;;;;5053818;28;20427;-53
2021/10/16 13:36:00;;;;;;;13.13;6.03;;;;;;;;;;5054560;28;20100;-53
2021/10/16 13:38:26;;;;;;;11.60;6.07;;;;;;;;;;5053808;28;20157;-53
2021/10/16 13:40:53;;;;;;;12.70;5.55;;;;;;;;;;5054203;28;20055;-53
2021/10/16 13:43:19;;;;;;;12.85;5.68;;;;;;;;;;5053912;28;20027;-53
2021/10/16 13:45:46;;;;;;;16.30;7.95;;;;;;;;;;5053330;28;20025;-53
2021/10/16 13:48:12;;;;;;;18.00;6.57;;;;;;;;;;5053525;28;20083;-53
2021/10/16 13:50:38;;;;;;;15.95;6.93;;;;;;;;;;5054409;28;20025;-53
2021/10/16 13:53:04;;;;;;;11.20;5.88;;;;;;;;;;5053551;28;20049;-53
2021/10/16 13:55:30;;;;;;;10.95;5.25;;;;;;;;;;5053521;28;20029;-53
2021/10/16 13:57:56;;;;;;;12.65;5.40;;;;;;;;;;5053703;28;20025;-53
2021/10/16 14:00:22;;;;;;;12.10;5.68;;;;;;;;;;5053559;28;20044;-53
2021/10/16 14:02:49;;;;;;;11.23;5.70;;;;;;;;;;5053469;28;20095;-53
2021/10/16 14:05:15;;;;;;;10.25;5.15;;;;;;;;;;5053194;28;20028;-53
2021/10/16 14:07:41;;;;;;;11.32;5.72;;;;;;;;;;5053471;28;20375;-53
2021/10/16 14:10:07;;;;;;;9.40;5.05;;;;;;;;;;5053899;28;20067;-53
2021/10/16 14:12:33;;;;;;;10.00;6.25;;;;;;;;;;5053239;28;20439;-53
2021/10/16 14:15:00;;;;;;;16.63;6.35;;;;;;;;;;5052689;28;20031;-53
2021/10/16 14:17:26;;;;;;;13.15;6.57;;;;;;;;;;5053275;28;20021;-53
2021/10/16 14:19:52;;;;;;;12.40;6.78;;;;;;;;;;5053308;28;20450;-53
2021/10/16 14:22:18;;;;;;;15.63;6.03;;;;;;;;;;5053909;28;20025;-53
2021/10/16 14:24:45;;;;;;;13.93;7.15;;;;;;;;;;5052275;28;20040;-53
2021/10/16 14:27:12;;;;;;;14.73;5.97;;;;;;;;;;5053084;28;20025;-53
2021/10/16 14:29:38;;;;;;;10.43;5.15;;;;;;;;;;5053255;28;20486;-53
2021/10/16 14:32:04;;;;;;;11.88;5.75;;;;;;;;;;5053723;28;20021;-53
2021/10/16 14:34:30;;;;;;;11.60;5.28;;;;;;;;;;5052194;28;20107;-53